createdAt,value
2018-01-11T00:00:01.363Z,8.84
2018-01-11T00:01:02.738Z,8.91
2018-01-11T00:02:04.094Z,8.78
2018-01-11T00:03:05.459Z,8.87
2018-01-11T00:04:06.849Z,8.83
2018-01-11T00:05:08.195Z,8.83
2018-01-11T00:06:09.567Z,8.96
2018-01-11T00:07:10.936Z,8.78
2018-01-11T00:08:12.303Z,8.84
2018-01-11T00:09:13.667Z,8.83
2018-01-11T00:10:15.026Z,8.83
2018-01-11T00:11:16.396Z,8.86
2018-01-11T00:12:17.767Z,8.84
2018-01-11T00:13:19.138Z,8.87
2018-01-11T00:14:20.495Z,8.75
2018-01-11T00:15:21.853Z,8.69
2018-01-11T00:16:23.220Z,8.79
2018-01-11T00:17:24.575Z,8.73
2018-01-11T00:18:25.945Z,8.72
2018-01-11T00:19:27.302Z,8.72
2018-01-11T00:20:28.674Z,8.83
2018-01-11T00:21:30.027Z,8.81
2018-01-11T00:22:31.390Z,8.73
2018-01-11T00:23:32.759Z,8.86
2018-01-11T00:24:34.120Z,8.75
2018-01-11T00:25:35.471Z,8.78
2018-01-11T00:26:36.835Z,8.73
2018-01-11T00:27:38.202Z,8.83
2018-01-11T00:28:39.570Z,8.71
2018-01-11T00:29:40.934Z,8.90
2018-01-11T00:30:42.302Z,8.79
2018-01-11T00:31:43.782Z,8.83
2018-01-11T00:32:45.137Z,8.75
2018-01-11T00:33:46.503Z,8.79
2018-01-11T00:34:47.877Z,8.83
2018-01-11T00:35:49.233Z,8.87
2018-01-11T00:36:50.588Z,8.81
2018-01-11T00:37:51.951Z,8.88
2018-01-11T00:38:53.311Z,8.87
2018-01-11T00:39:54.672Z,8.90
2018-01-11T00:40:56.033Z,8.94
2018-01-11T00:41:57.394Z,8.83
2018-01-11T00:42:58.757Z,8.81
2018-01-11T00:44:00.139Z,8.75
2018-01-11T00:45:01.485Z,8.83
2018-01-11T00:46:02.856Z,8.88
2018-01-11T00:47:04.223Z,8.87
2018-01-11T00:48:05.596Z,8.93
2018-01-11T00:49:06.966Z,8.86
2018-01-11T00:50:08.326Z,8.84
2018-01-11T00:51:09.682Z,8.91
2018-01-11T00:52:11.059Z,8.86
2018-01-11T00:53:12.425Z,8.83
2018-01-11T00:54:13.788Z,8.79
2018-01-11T00:55:15.162Z,8.72
2018-01-11T00:56:16.524Z,8.68
2018-01-11T00:57:17.887Z,8.87
2018-01-11T00:58:19.263Z,8.79
2018-01-11T00:59:20.625Z,8.88
2018-01-11T01:00:21.980Z,8.90
2018-01-11T01:01:23.349Z,8.90
2018-01-11T01:02:24.710Z,8.88
2018-01-11T01:03:26.074Z,8.78
2018-01-11T01:04:27.432Z,8.68
2018-01-11T01:05:28.796Z,8.75
2018-01-11T01:06:30.161Z,8.81
2018-01-11T01:07:31.599Z,8.78
2018-01-11T01:08:32.961Z,8.76
2018-01-11T01:09:34.322Z,8.86
2018-01-11T01:10:35.691Z,8.90
2018-01-11T01:11:37.055Z,8.86
2018-01-11T01:12:38.439Z,8.91
2018-01-11T01:13:39.802Z,8.81
2018-01-11T01:14:41.169Z,8.88
2018-01-11T01:15:43.242Z,8.79
2018-01-11T01:16:44.757Z,8.78
2018-01-11T01:17:46.124Z,8.72
2018-01-11T01:18:47.494Z,8.69
2018-01-11T01:19:48.859Z,8.69
2018-01-11T01:20:50.228Z,8.71
2018-01-11T01:21:51.665Z,8.65
2018-01-11T01:22:53.049Z,8.65
2018-01-11T01:23:54.412Z,8.62
2018-01-11T01:24:55.774Z,8.66
2018-01-11T01:25:57.128Z,8.69
2018-01-11T01:26:58.594Z,8.72
2018-01-11T01:27:59.965Z,8.78
2018-01-11T01:29:01.331Z,8.72
2018-01-11T01:30:02.690Z,8.69
2018-01-11T01:31:04.062Z,8.55
2018-01-11T01:32:05.433Z,8.75
2018-01-11T01:33:06.789Z,8.72
2018-01-11T01:34:08.151Z,8.83
2018-01-11T01:35:09.512Z,8.81
2018-01-11T01:36:10.872Z,8.96
2018-01-11T01:37:12.251Z,9.01
2018-01-11T01:38:13.704Z,9.06
2018-01-11T01:39:15.059Z,9.12
2018-01-11T01:40:16.426Z,9.10
2018-01-11T01:41:17.787Z,9.12
2018-01-11T01:42:19.162Z,9.01
2018-01-11T01:43:20.524Z,8.86
2018-01-11T01:44:21.898Z,8.90
2018-01-11T01:45:23.267Z,8.79
2018-01-11T01:46:24.633Z,8.83
2018-01-11T01:47:26.002Z,8.69
2018-01-11T01:48:27.367Z,8.81
2018-01-11T01:49:28.732Z,8.81
2018-01-11T01:50:30.103Z,8.90
2018-01-11T01:51:31.477Z,9.01
2018-01-11T01:52:32.834Z,9.01
2018-01-11T01:53:34.199Z,9.12
2018-01-11T01:54:35.558Z,8.99
2018-01-11T01:55:36.924Z,9.01
2018-01-11T01:56:38.289Z,8.94
2018-01-11T01:57:39.655Z,9.01
2018-01-11T01:58:41.019Z,9.05
2018-01-11T01:59:42.377Z,9.04
2018-01-11T02:00:43.737Z,9.12
2018-01-11T02:01:45.069Z,9.04
2018-01-11T02:02:46.440Z,9.12
2018-01-11T02:03:47.805Z,8.91
2018-01-11T02:04:49.182Z,8.62
2018-01-11T02:05:50.542Z,8.65
2018-01-11T02:06:51.906Z,8.87
2018-01-11T02:07:53.275Z,8.87
2018-01-11T02:08:54.643Z,8.79
2018-01-11T02:09:56.013Z,8.91
2018-01-11T02:10:57.373Z,8.87
2018-01-11T02:11:58.729Z,8.79
2018-01-11T02:13:00.100Z,8.99
2018-01-11T02:14:01.466Z,8.76
2018-01-11T02:15:02.827Z,8.69
2018-01-11T02:16:04.189Z,8.97
2018-01-11T02:17:05.549Z,8.81
2018-01-11T02:18:06.914Z,8.99
2018-01-11T02:19:08.279Z,8.71
2018-01-11T02:20:09.646Z,8.78
2018-01-11T02:21:11.014Z,8.86
2018-01-11T02:22:12.385Z,8.90
2018-01-11T02:23:13.756Z,8.75
2018-01-11T02:24:15.177Z,8.66
2018-01-11T02:25:16.545Z,8.65
2018-01-11T02:26:17.911Z,8.60
2018-01-11T02:27:19.272Z,8.66
2018-01-11T02:28:20.637Z,8.69
2018-01-11T02:29:22.033Z,8.65
2018-01-11T02:30:23.398Z,8.63
2018-01-11T02:31:24.756Z,8.63
2018-01-11T02:32:26.118Z,8.71
2018-01-11T02:33:27.479Z,8.76
2018-01-11T02:34:28.848Z,8.81
2018-01-11T02:35:30.205Z,8.73
2018-01-11T02:36:31.572Z,8.73
2018-01-11T02:37:32.935Z,8.87
2018-01-11T02:38:34.289Z,8.87
2018-01-11T02:39:35.681Z,8.72
2018-01-11T02:40:37.046Z,8.79
2018-01-11T02:41:38.408Z,8.94
2018-01-11T02:42:39.769Z,8.79
2018-01-11T02:43:41.133Z,8.69
2018-01-11T02:44:42.496Z,8.94
2018-01-11T02:45:43.858Z,8.72
2018-01-11T02:46:45.220Z,8.75
2018-01-11T02:47:46.591Z,8.50
2018-01-11T02:48:47.948Z,8.60
2018-01-11T02:49:49.310Z,8.54
2018-01-11T02:50:50.684Z,8.65
2018-01-11T02:51:52.042Z,8.88
2018-01-11T02:52:53.416Z,8.68
2018-01-11T02:53:54.767Z,8.54
2018-01-11T02:54:56.130Z,8.55
2018-01-11T02:55:57.496Z,8.62
2018-01-11T02:56:58.862Z,8.71
2018-01-11T02:58:00.228Z,8.76
2018-01-11T02:59:01.594Z,8.84
2018-01-11T03:00:02.963Z,8.84
2018-01-11T03:01:04.333Z,8.78
2018-01-11T03:02:05.699Z,8.86
2018-01-11T03:03:07.061Z,8.93
2018-01-11T03:04:08.427Z,8.71
2018-01-11T03:05:09.784Z,8.78
2018-01-11T03:06:11.145Z,8.83
2018-01-11T03:07:12.517Z,8.73
2018-01-11T03:08:13.875Z,8.81
2018-01-11T03:09:15.242Z,8.83
2018-01-11T03:10:16.615Z,8.81
2018-01-11T03:11:17.980Z,8.78
2018-01-11T03:12:19.346Z,8.75
2018-01-11T03:13:20.714Z,8.83
2018-01-11T03:14:22.072Z,8.75
2018-01-11T03:15:23.426Z,8.91
2018-01-11T03:16:24.796Z,8.86
2018-01-11T03:17:26.166Z,8.81
2018-01-11T03:18:27.530Z,8.86
2018-01-11T03:19:28.893Z,8.91
2018-01-11T03:20:30.255Z,8.81
2018-01-11T03:21:31.618Z,8.84
2018-01-11T03:22:32.974Z,8.87
2018-01-11T03:23:34.344Z,8.97
2018-01-11T03:24:35.700Z,8.68
2018-01-11T03:25:37.063Z,8.75
2018-01-11T03:26:38.422Z,8.58
2018-01-11T03:27:39.797Z,8.71
2018-01-11T03:28:41.172Z,8.33
2018-01-11T03:29:42.533Z,8.51
2018-01-11T03:30:43.894Z,8.44
2018-01-11T03:31:45.257Z,8.51
2018-01-11T03:32:46.626Z,8.73
2018-01-11T03:33:47.988Z,8.69
2018-01-11T03:34:49.350Z,8.81
2018-01-11T03:35:50.709Z,8.63
2018-01-11T03:36:52.078Z,8.62
2018-01-11T03:37:53.441Z,8.68
2018-01-11T03:38:54.808Z,8.37
2018-01-11T03:39:56.174Z,8.57
2018-01-11T03:40:57.543Z,8.66
2018-01-11T03:41:58.903Z,8.66
2018-01-11T03:43:00.262Z,8.66
2018-01-11T03:44:01.627Z,8.58
2018-01-11T03:45:02.993Z,8.69
2018-01-11T03:46:04.353Z,8.58
2018-01-11T03:47:05.719Z,8.54
2018-01-11T03:48:07.091Z,8.57
2018-01-11T03:49:08.455Z,8.55
2018-01-11T03:50:09.821Z,8.42
2018-01-11T03:51:11.191Z,8.63
2018-01-11T03:52:12.547Z,8.58
2018-01-11T03:53:13.902Z,8.55
2018-01-11T03:54:15.268Z,8.65
2018-01-11T03:55:16.630Z,8.55
2018-01-11T03:56:17.990Z,8.47
2018-01-11T03:57:19.352Z,8.42
2018-01-11T03:58:20.716Z,8.62
2018-01-11T03:59:22.101Z,8.40
2018-01-11T04:00:23.480Z,8.42
2018-01-11T04:01:24.842Z,8.53
2018-01-11T04:02:26.200Z,8.37
2018-01-11T04:03:27.564Z,8.37
2018-01-11T04:04:28.927Z,8.35
2018-01-11T04:05:30.308Z,8.21
2018-01-11T04:06:31.677Z,8.21
2018-01-11T04:07:33.029Z,8.33
2018-01-11T04:08:34.393Z,8.28
2018-01-11T04:09:35.767Z,8.25
2018-01-11T04:10:37.140Z,8.03
2018-01-11T04:11:38.498Z,8.26
2018-01-11T04:12:39.855Z,8.15
2018-01-11T04:13:41.228Z,8.39
2018-01-11T04:14:42.718Z,8.51
2018-01-11T04:15:44.081Z,8.53
2018-01-11T04:16:45.444Z,8.60
2018-01-11T04:17:46.818Z,8.63
2018-01-11T04:18:48.178Z,8.60
2018-01-11T04:19:49.540Z,8.78
2018-01-11T04:20:50.901Z,8.73
2018-01-11T04:21:52.276Z,8.68
2018-01-11T04:22:53.646Z,8.72
2018-01-11T04:23:55.006Z,8.75
2018-01-11T04:24:56.413Z,8.57
2018-01-11T04:25:57.776Z,8.72
2018-01-11T04:26:59.138Z,8.86
2018-01-11T04:28:00.496Z,8.72
2018-01-11T04:29:01.860Z,8.86
2018-01-11T04:30:03.225Z,8.81
2018-01-11T04:31:04.589Z,8.75
2018-01-11T04:32:05.962Z,8.72
2018-01-11T04:33:07.322Z,8.76
2018-01-11T04:34:08.685Z,8.73
2018-01-11T04:35:10.042Z,8.73
2018-01-11T04:36:11.399Z,8.68
2018-01-11T04:37:12.773Z,8.68
2018-01-11T04:38:14.136Z,8.81
2018-01-11T04:39:15.492Z,8.53
2018-01-11T04:40:16.858Z,8.53
2018-01-11T04:41:18.228Z,8.42
2018-01-11T04:42:19.592Z,8.37
2018-01-11T04:43:20.958Z,8.55
2018-01-11T04:44:22.329Z,8.30
2018-01-11T04:45:23.698Z,8.20
2018-01-11T04:46:25.052Z,8.12
2018-01-11T04:47:26.415Z,8.14
2018-01-11T04:48:27.776Z,8.25
2018-01-11T04:49:29.141Z,8.44
2018-01-11T04:50:30.508Z,8.55
2018-01-11T04:51:31.865Z,8.54
2018-01-11T04:52:33.237Z,8.54
2018-01-11T04:53:34.604Z,8.65
2018-01-11T04:54:35.964Z,8.55
2018-01-11T04:55:37.336Z,8.55
2018-01-11T04:56:38.696Z,8.57
2018-01-11T04:57:40.064Z,8.54
2018-01-11T04:58:41.421Z,8.63
2018-01-11T04:59:42.784Z,8.53
2018-01-11T05:00:44.146Z,8.53
2018-01-11T05:01:45.517Z,8.40
2018-01-11T05:02:46.877Z,8.21
2018-01-11T05:03:48.241Z,8.29
2018-01-11T05:04:49.602Z,8.51
2018-01-11T05:05:50.964Z,8.54
2018-01-11T05:06:52.325Z,8.36
2018-01-11T05:07:53.689Z,8.22
2018-01-11T05:08:55.044Z,8.36
2018-01-11T05:09:56.407Z,8.50
2018-01-11T05:10:57.773Z,8.35
2018-01-11T05:11:59.153Z,8.36
2018-01-11T05:13:00.515Z,8.26
2018-01-11T05:14:01.878Z,8.20
2018-01-11T05:15:03.240Z,8.21
2018-01-11T05:16:04.601Z,8.14
2018-01-11T05:17:05.975Z,8.02
2018-01-11T05:18:07.334Z,8.10
2018-01-11T05:19:08.694Z,8.28
2018-01-11T05:20:10.058Z,8.35
2018-01-11T05:21:11.429Z,8.45
2018-01-11T05:22:12.794Z,8.50
2018-01-11T05:23:14.150Z,8.37
2018-01-11T05:24:15.515Z,8.20
2018-01-11T05:25:16.882Z,8.21
2018-01-11T05:26:18.242Z,8.37
2018-01-11T05:27:19.607Z,8.57
2018-01-11T05:28:20.968Z,8.15
2018-01-11T05:29:22.333Z,7.97
2018-01-11T05:30:23.699Z,8.11
2018-01-11T05:31:25.057Z,7.92
2018-01-11T05:32:26.426Z,7.72
2018-01-11T05:33:27.792Z,7.75
2018-01-11T05:34:29.159Z,7.99
2018-01-11T05:35:30.521Z,8.15
2018-01-11T05:36:31.882Z,8.18
2018-01-11T05:37:33.245Z,8.25
2018-01-11T05:38:34.598Z,8.00
2018-01-11T05:39:35.962Z,8.20
2018-01-11T05:40:37.325Z,8.51
2018-01-11T05:41:38.683Z,8.55
2018-01-11T05:42:40.038Z,8.50
2018-01-11T05:43:41.402Z,8.44
2018-01-11T05:44:42.768Z,8.35
2018-01-11T05:45:44.127Z,8.63
2018-01-11T05:46:45.493Z,8.68
2018-01-11T05:47:46.854Z,8.60
2018-01-11T05:48:48.218Z,8.48
2018-01-11T05:49:49.581Z,8.42
2018-01-11T05:50:50.945Z,8.44
2018-01-11T05:51:52.329Z,8.62
2018-01-11T05:52:53.690Z,8.58
2018-01-11T05:53:55.049Z,8.83
2018-01-11T05:54:56.421Z,8.79
2018-01-11T05:55:57.788Z,8.69
2018-01-11T05:56:59.148Z,8.81
2018-01-11T05:58:00.516Z,8.76
2018-01-11T05:59:01.892Z,8.68
2018-01-11T06:00:03.256Z,8.53
2018-01-11T06:01:04.618Z,8.58
2018-01-11T06:02:05.981Z,8.78
2018-01-11T06:03:07.347Z,8.81
2018-01-11T06:04:08.718Z,8.73
2018-01-11T06:05:10.188Z,8.83
2018-01-11T06:06:11.549Z,8.72
2018-01-11T06:07:12.922Z,8.87
2018-01-11T06:08:14.286Z,8.91
2018-01-11T06:09:15.643Z,8.73
2018-01-11T06:10:17.010Z,8.29
2018-01-11T06:11:18.419Z,7.99
2018-01-11T06:12:19.741Z,8.08
2018-01-11T06:13:21.106Z,8.40
2018-01-11T06:14:22.471Z,8.54
2018-01-11T06:15:23.842Z,8.44
2018-01-11T06:16:25.214Z,8.54
2018-01-11T06:17:26.607Z,8.36
2018-01-11T06:18:28.014Z,8.54
2018-01-11T06:19:29.375Z,8.45
2018-01-11T06:20:30.741Z,8.63
2018-01-11T06:21:32.223Z,8.72
2018-01-11T06:22:33.582Z,8.75
2018-01-11T06:23:34.950Z,8.71
2018-01-11T06:24:36.320Z,8.84
2018-01-11T06:25:37.700Z,8.88
2018-01-11T06:26:39.231Z,8.90
2018-01-11T06:27:40.540Z,8.87
2018-01-11T06:28:41.903Z,8.72
2018-01-11T06:29:43.264Z,8.54
2018-01-11T06:30:44.629Z,8.48
2018-01-11T06:31:45.998Z,8.37
2018-01-11T06:32:47.378Z,8.50
2018-01-11T06:33:48.739Z,8.51
2018-01-11T06:34:50.107Z,8.65
2018-01-11T06:35:51.472Z,8.65
2018-01-11T06:36:52.923Z,8.72
2018-01-11T06:37:54.288Z,8.60
2018-01-11T06:38:55.651Z,8.72
2018-01-11T06:39:57.012Z,8.75
2018-01-11T06:40:58.368Z,8.71
2018-01-11T06:41:59.794Z,8.69
2018-01-11T06:43:01.149Z,8.78
2018-01-11T06:44:02.518Z,8.79
2018-01-11T06:45:03.870Z,8.84
2018-01-11T06:46:05.234Z,8.83
2018-01-11T06:47:06.632Z,8.83
2018-01-11T06:48:07.989Z,8.69
2018-01-11T06:49:09.352Z,8.84
2018-01-11T06:50:10.715Z,8.79
2018-01-11T06:51:12.088Z,8.69
2018-01-11T06:52:13.436Z,8.86
2018-01-11T06:53:14.793Z,8.78
2018-01-11T06:54:16.152Z,8.68
2018-01-11T06:55:17.516Z,8.53
2018-01-11T06:56:18.875Z,8.20
2018-01-11T06:57:20.233Z,8.21
2018-01-11T06:58:21.593Z,8.02
2018-01-11T06:59:22.961Z,7.97
2018-01-11T07:00:24.321Z,7.82
2018-01-11T07:01:25.706Z,7.96
2018-01-11T07:02:27.057Z,7.93
2018-01-11T07:03:28.427Z,7.77
2018-01-11T07:04:29.784Z,7.77
2018-01-11T07:05:31.149Z,7.77
2018-01-11T07:06:32.518Z,7.58
2018-01-11T07:07:33.901Z,7.69
2018-01-11T07:08:35.260Z,7.74
2018-01-11T07:09:36.629Z,7.82
2018-01-11T07:10:37.993Z,7.94
2018-01-11T07:11:39.362Z,8.04
2018-01-11T07:12:40.736Z,7.97
2018-01-11T07:13:42.118Z,8.04
2018-01-11T07:14:43.484Z,8.25
2018-01-11T07:15:44.843Z,8.55
2018-01-11T07:16:46.224Z,8.53
2018-01-11T07:17:47.586Z,8.60
2018-01-11T07:18:48.939Z,8.69
2018-01-11T07:19:50.306Z,8.73
2018-01-11T07:20:51.663Z,8.78
2018-01-11T07:21:53.026Z,8.71
2018-01-11T07:22:54.388Z,8.87
2018-01-11T07:23:55.744Z,8.71
2018-01-11T07:24:57.108Z,8.55
2018-01-11T07:25:58.483Z,8.57
2018-01-11T07:26:59.852Z,8.71
2018-01-11T07:28:01.232Z,8.81
2018-01-11T07:29:02.589Z,8.65
2018-01-11T07:30:03.955Z,8.58
2018-01-11T07:31:05.338Z,8.65
2018-01-11T07:32:06.688Z,8.54
2018-01-11T07:33:08.059Z,8.63
2018-01-11T07:34:09.434Z,8.71
2018-01-11T07:35:10.797Z,8.63
2018-01-11T07:36:12.166Z,8.54
2018-01-11T07:37:13.537Z,8.45
2018-01-11T07:38:14.912Z,8.22
2018-01-11T07:39:16.271Z,8.02
2018-01-11T07:40:17.639Z,7.92
2018-01-11T07:41:18.997Z,7.89
2018-01-11T07:42:20.360Z,7.99
2018-01-11T07:43:21.723Z,8.12
2018-01-11T07:44:23.085Z,8.37
2018-01-11T07:45:24.460Z,8.54
2018-01-11T07:46:25.826Z,8.40
2018-01-11T07:47:27.193Z,8.55
2018-01-11T07:48:28.551Z,8.57
2018-01-11T07:49:29.909Z,8.57
2018-01-11T07:50:31.288Z,8.51
2018-01-11T07:51:32.646Z,8.47
2018-01-11T07:52:34.029Z,8.39
2018-01-11T07:53:35.390Z,8.36
2018-01-11T07:54:36.768Z,8.36
2018-01-11T07:55:38.130Z,8.33
2018-01-11T07:56:39.494Z,8.36
2018-01-11T07:57:40.856Z,8.25
2018-01-11T07:58:42.222Z,8.35
2018-01-11T07:59:43.597Z,8.60
2018-01-11T08:00:44.965Z,8.54
2018-01-11T08:01:46.326Z,8.71
2018-01-11T08:02:47.683Z,8.60
2018-01-11T08:03:49.050Z,8.63
2018-01-11T08:04:50.417Z,8.72
2018-01-11T08:05:51.787Z,8.72
2018-01-11T08:06:53.149Z,8.58
2018-01-11T08:07:54.514Z,8.28
2018-01-11T08:08:55.885Z,8.20
2018-01-11T08:09:57.264Z,8.18
2018-01-11T08:10:58.624Z,8.14
2018-01-11T08:12:00.000Z,8.39
2018-01-11T08:13:01.367Z,8.68
2018-01-11T08:14:02.748Z,8.78
2018-01-11T08:15:04.142Z,8.83
2018-01-11T08:16:05.511Z,8.71
2018-01-11T08:17:06.882Z,8.88
2018-01-11T08:18:08.256Z,8.87
2018-01-11T08:19:09.621Z,8.83
2018-01-11T08:20:11.009Z,8.75
2018-01-11T08:21:12.359Z,8.76
2018-01-11T08:22:13.723Z,8.83
2018-01-11T08:23:15.088Z,9.01
2018-01-11T08:24:16.460Z,8.90
2018-01-11T08:25:17.822Z,8.84
2018-01-11T08:26:19.231Z,8.69
2018-01-11T08:27:20.610Z,8.73
2018-01-11T08:28:22.170Z,8.60
2018-01-11T08:29:23.537Z,8.51
2018-01-11T08:30:24.902Z,8.42
2018-01-11T08:31:26.328Z,8.60
2018-01-11T08:32:27.694Z,8.54
2018-01-11T08:33:29.062Z,8.71
2018-01-11T08:34:30.444Z,8.84
2018-01-11T08:35:31.819Z,8.87
2018-01-11T08:36:33.176Z,9.02
2018-01-11T08:37:34.544Z,8.96
2018-01-11T08:38:36.826Z,8.94
2018-01-11T08:39:38.323Z,8.83
2018-01-11T08:40:39.695Z,8.84
2018-01-11T08:41:41.057Z,8.90
2018-01-11T08:42:42.428Z,9.10
2018-01-11T08:43:43.799Z,9.20
2018-01-11T08:44:45.179Z,9.30
2018-01-11T08:45:46.569Z,9.10
2018-01-11T08:46:47.943Z,9.09
2018-01-11T08:47:49.312Z,9.27
2018-01-11T08:48:50.698Z,9.25
2018-01-11T08:49:52.049Z,9.28
2018-01-11T08:50:53.412Z,9.43
2018-01-11T08:51:54.776Z,9.48
2018-01-11T08:52:56.147Z,9.52
2018-01-11T08:53:57.518Z,9.53
2018-01-11T08:54:58.886Z,9.49
2018-01-11T08:56:00.257Z,9.53
2018-01-11T08:57:01.626Z,9.68
2018-01-11T08:58:02.996Z,9.68
2018-01-11T08:59:04.361Z,9.63
2018-01-11T09:00:05.731Z,9.42
2018-01-11T09:01:07.097Z,9.32
2018-01-11T09:02:08.462Z,9.25
2018-01-11T09:03:09.847Z,9.27
2018-01-11T09:04:11.210Z,9.23
2018-01-11T09:05:12.588Z,9.30
2018-01-11T09:06:13.949Z,9.45
2018-01-11T09:07:15.310Z,9.70
2018-01-11T09:08:16.685Z,9.70
2018-01-11T09:09:18.056Z,9.83
2018-01-11T09:10:19.414Z,9.61
2018-01-11T09:11:20.782Z,9.56
2018-01-11T09:12:22.145Z,9.48
2018-01-11T09:13:23.518Z,9.46
2018-01-11T09:14:24.890Z,9.70
2018-01-11T09:15:26.247Z,9.52
2018-01-11T09:16:27.617Z,9.57
2018-01-11T09:17:28.981Z,9.75
2018-01-11T09:18:30.346Z,9.78
2018-01-11T09:19:31.716Z,9.64
2018-01-11T09:20:33.085Z,9.91
2018-01-11T09:21:34.443Z,9.96
2018-01-11T09:22:35.810Z,10.04
2018-01-11T09:23:37.183Z,10.09
2018-01-11T09:24:38.546Z,10.06
2018-01-11T09:25:39.936Z,10.10
2018-01-11T09:26:41.659Z,10.21
2018-01-11T09:27:43.203Z,10.25
2018-01-11T09:28:44.572Z,10.15
2018-01-11T09:29:46.319Z,10.06
2018-01-11T09:30:47.790Z,10.15
2018-01-11T09:31:49.161Z,10.19
2018-01-11T09:32:50.532Z,10.21
2018-01-11T09:33:51.964Z,10.19
2018-01-11T09:34:53.335Z,10.25
2018-01-11T09:35:54.702Z,10.28
2018-01-11T09:36:56.084Z,10.36
2018-01-11T09:37:57.463Z,10.19
2018-01-11T09:38:58.856Z,10.14
2018-01-11T09:40:00.225Z,10.14
2018-01-11T09:41:01.604Z,9.94
2018-01-11T09:42:03.030Z,10.04
2018-01-11T09:43:04.346Z,10.25
2018-01-11T09:44:05.711Z,10.22
2018-01-11T09:45:07.101Z,10.17
2018-01-11T09:46:08.457Z,10.06
2018-01-11T09:47:09.837Z,10.10
2018-01-11T09:48:11.208Z,10.15
2018-01-11T09:49:12.570Z,10.09
2018-01-11T09:50:13.939Z,10.09
2018-01-11T09:51:15.305Z,10.17
2018-01-11T09:52:16.674Z,10.28
2018-01-11T09:53:18.029Z,10.30
2018-01-11T09:54:19.408Z,10.33
2018-01-11T09:55:20.772Z,10.39
2018-01-11T09:56:22.147Z,10.43
2018-01-11T09:57:23.526Z,10.46
2018-01-11T09:58:24.892Z,10.32
2018-01-11T09:59:26.259Z,10.42
2018-01-11T10:00:27.634Z,10.33
2018-01-11T10:01:29.005Z,10.34
2018-01-11T10:02:30.385Z,10.44
2018-01-11T10:03:31.749Z,10.25
2018-01-11T10:04:33.127Z,10.36
2018-01-11T10:05:34.489Z,10.51
2018-01-11T10:06:35.859Z,10.52
2018-01-11T10:07:37.232Z,10.56
2018-01-11T10:08:38.610Z,10.56
2018-01-11T10:09:39.994Z,10.46
2018-01-11T10:10:41.382Z,10.40
2018-01-11T10:11:42.879Z,10.40
2018-01-11T10:12:44.238Z,10.43
2018-01-11T10:13:45.633Z,10.63
2018-01-11T10:14:46.994Z,10.55
2018-01-11T10:15:48.401Z,10.58
2018-01-11T10:16:49.762Z,10.55
2018-01-11T10:17:51.135Z,10.59
2018-01-11T10:18:52.508Z,10.59
2018-01-11T10:19:53.856Z,10.58
2018-01-11T10:20:55.227Z,10.65
2018-01-11T10:21:56.599Z,10.59
2018-01-11T10:22:57.971Z,10.40
2018-01-11T10:23:59.346Z,10.21
2018-01-11T10:25:00.720Z,10.36
2018-01-11T10:26:02.096Z,10.53
2018-01-11T10:27:03.459Z,10.68
2018-01-11T10:28:04.821Z,10.73
2018-01-11T10:29:06.191Z,10.53
2018-01-11T10:30:07.557Z,10.60
2018-01-11T10:31:08.927Z,10.66
2018-01-11T10:32:10.298Z,10.70
2018-01-11T10:33:11.666Z,10.68
2018-01-11T10:34:13.034Z,10.83
2018-01-11T10:35:14.405Z,10.78
2018-01-11T10:36:15.778Z,10.71
2018-01-11T10:37:17.159Z,10.78
2018-01-11T10:38:18.673Z,10.91
2018-01-11T10:39:20.047Z,10.92
2018-01-11T10:40:21.415Z,10.86
2018-01-11T10:41:22.782Z,10.96
2018-01-11T10:42:24.153Z,10.91
2018-01-11T10:43:25.517Z,10.92
2018-01-11T10:44:26.893Z,11.01
2018-01-11T10:45:28.260Z,10.84
2018-01-11T10:46:29.623Z,10.80
2018-01-11T10:47:30.999Z,10.83
2018-01-11T10:48:32.356Z,10.63
2018-01-11T10:49:33.730Z,10.59
2018-01-11T10:50:35.099Z,10.66
2018-01-11T10:51:36.469Z,10.59
2018-01-11T10:52:37.839Z,10.39
2018-01-11T10:53:39.204Z,10.52
2018-01-11T10:54:40.579Z,10.30
2018-01-11T10:55:41.946Z,10.34
2018-01-11T10:56:43.315Z,10.46
2018-01-11T10:57:44.684Z,10.47
2018-01-11T10:58:46.055Z,10.42
2018-01-11T10:59:47.431Z,10.24
2018-01-11T11:00:48.827Z,10.24
2018-01-11T11:01:50.303Z,10.15
2018-01-11T11:02:51.686Z,10.15
2018-01-11T11:03:53.062Z,10.26
2018-01-11T11:04:54.580Z,10.34
2018-01-11T11:05:55.945Z,10.22
2018-01-11T11:06:57.319Z,10.32
2018-01-11T11:07:58.697Z,10.52
2018-01-11T11:09:00.060Z,10.47
2018-01-11T11:10:01.434Z,10.37
2018-01-11T11:11:02.807Z,10.47
2018-01-11T11:12:04.187Z,10.40
2018-01-11T11:13:05.557Z,10.51
2018-01-11T11:14:06.932Z,10.55
2018-01-11T11:15:08.313Z,10.58
2018-01-11T11:16:09.678Z,10.44
2018-01-11T11:17:11.052Z,10.55
2018-01-11T11:18:12.551Z,10.51
2018-01-11T11:19:13.910Z,10.74
2018-01-11T11:20:15.285Z,10.40
2018-01-11T11:21:16.699Z,10.68
2018-01-11T11:22:18.074Z,10.56
2018-01-11T11:23:19.454Z,10.52
2018-01-11T11:24:20.830Z,10.53
2018-01-11T11:25:22.198Z,10.52
2018-01-11T11:26:23.566Z,10.63
2018-01-11T11:27:24.942Z,10.47
2018-01-11T11:28:26.307Z,10.59
2018-01-11T11:29:27.678Z,10.59
2018-01-11T11:30:29.047Z,10.66
2018-01-11T11:31:30.431Z,10.70
2018-01-11T11:32:31.809Z,10.70
2018-01-11T11:33:33.180Z,10.74
2018-01-11T11:34:34.550Z,10.71
2018-01-11T11:35:35.921Z,10.73
2018-01-11T11:36:37.303Z,10.58
2018-01-11T11:37:38.689Z,10.52
2018-01-11T11:38:40.060Z,10.58
2018-01-11T11:39:41.425Z,10.81
2018-01-11T11:40:42.798Z,10.71
2018-01-11T11:41:44.166Z,10.74
2018-01-11T11:42:45.604Z,10.56
2018-01-11T11:43:46.965Z,10.51
2018-01-11T11:44:48.388Z,10.58
2018-01-11T11:45:49.753Z,10.47
2018-01-11T11:46:51.118Z,10.52
2018-01-11T11:47:52.490Z,10.52
2018-01-11T11:48:53.860Z,10.58
2018-01-11T11:49:55.230Z,10.52
2018-01-11T11:50:56.621Z,10.52
2018-01-11T11:51:57.984Z,10.51
2018-01-11T11:52:59.353Z,10.60
2018-01-11T11:54:00.722Z,10.46
2018-01-11T11:55:02.080Z,10.62
2018-01-11T11:56:03.470Z,10.58
2018-01-11T11:57:04.837Z,10.59
2018-01-11T11:58:06.211Z,10.56
2018-01-11T11:59:07.574Z,10.62
2018-01-11T12:00:08.951Z,10.68
2018-01-11T12:01:10.318Z,10.43
2018-01-11T12:02:11.686Z,10.51
2018-01-11T12:03:13.057Z,10.52
2018-01-11T12:04:14.438Z,10.56
2018-01-11T12:05:15.805Z,10.66
2018-01-11T12:06:17.173Z,10.68
2018-01-11T12:07:18.550Z,10.73
2018-01-11T12:08:19.920Z,10.80
2018-01-11T12:09:21.293Z,10.58
2018-01-11T12:10:22.667Z,10.71
2018-01-11T12:11:24.035Z,10.59
2018-01-11T12:12:25.420Z,10.60
2018-01-11T12:13:26.791Z,10.53
2018-01-11T12:14:28.164Z,10.43
2018-01-11T12:15:29.532Z,10.46
2018-01-11T12:16:30.900Z,10.55
2018-01-11T12:17:32.270Z,10.59
2018-01-11T12:18:33.632Z,10.56
2018-01-11T12:19:35.003Z,10.59
2018-01-11T12:20:36.377Z,10.59
2018-01-11T12:21:37.757Z,10.59
2018-01-11T12:22:39.121Z,10.78
2018-01-11T12:23:40.485Z,10.58
2018-01-11T12:24:41.857Z,10.44
2018-01-11T12:25:43.221Z,10.66
2018-01-11T12:26:44.598Z,10.53
2018-01-11T12:27:45.973Z,10.65
2018-01-11T12:28:47.345Z,10.77
2018-01-11T12:29:48.717Z,10.74
2018-01-11T12:30:50.032Z,10.66
2018-01-11T12:31:51.421Z,10.74
2018-01-11T12:32:52.794Z,10.73
2018-01-11T12:33:54.164Z,10.78
2018-01-11T12:34:55.536Z,10.98
2018-01-11T12:35:56.896Z,10.88
2018-01-11T12:36:58.265Z,11.10
2018-01-11T12:37:59.629Z,10.88
2018-01-11T12:39:00.994Z,10.92
2018-01-11T12:40:02.366Z,10.84
2018-01-11T12:41:03.753Z,10.94
2018-01-11T12:42:05.138Z,10.96
2018-01-11T12:43:06.510Z,11.07
2018-01-11T12:44:07.877Z,11.03
2018-01-11T12:45:09.248Z,11.01
2018-01-11T12:46:10.657Z,10.81
2018-01-11T12:47:12.020Z,10.76
2018-01-11T12:48:13.384Z,10.58
2018-01-11T12:49:14.755Z,10.73
2018-01-11T12:50:16.154Z,10.77
2018-01-11T12:51:17.531Z,10.76
2018-01-11T12:52:18.910Z,10.78
2018-01-11T12:53:20.272Z,11.02
2018-01-11T12:54:21.649Z,10.81
2018-01-11T12:55:23.023Z,10.76
2018-01-11T12:56:24.514Z,10.91
2018-01-11T12:57:25.940Z,10.96
2018-01-11T12:58:27.395Z,11.03
2018-01-11T12:59:28.768Z,11.19
2018-01-11T13:00:30.268Z,10.92
2018-01-11T13:01:31.642Z,10.94
2018-01-11T13:02:33.008Z,10.88
2018-01-11T13:03:34.366Z,10.96
2018-01-11T13:04:35.750Z,10.80
2018-01-11T13:05:37.115Z,10.77
2018-01-11T13:06:38.489Z,10.84
2018-01-11T13:07:39.853Z,10.66
2018-01-11T13:08:41.226Z,10.68
2018-01-11T13:09:42.618Z,10.60
2018-01-11T13:10:43.968Z,10.65
2018-01-11T13:11:45.339Z,10.59
2018-01-11T13:12:46.732Z,10.58
2018-01-11T13:13:48.108Z,10.58
2018-01-11T13:14:49.531Z,10.70
2018-01-11T13:15:50.917Z,10.66
2018-01-11T13:16:52.287Z,10.62
2018-01-11T13:17:53.662Z,10.52
2018-01-11T13:18:55.024Z,10.56
2018-01-11T13:19:56.520Z,10.52
2018-01-11T13:20:57.913Z,10.34
2018-01-11T13:21:59.289Z,10.62
2018-01-11T13:23:00.661Z,10.44
2018-01-11T13:24:02.066Z,10.60
2018-01-11T13:25:03.423Z,10.56
2018-01-11T13:26:04.782Z,10.51
2018-01-11T13:27:06.151Z,10.60
2018-01-11T13:28:07.522Z,10.53